Time;durP1;ratioP1;P1;durP2;ratioP2;P2;SDS_P1;SDS_P2;PMS_P1;PMS_P2;Temp;Humidity;BMP_temperature;BMP_pressure;BME280_temperature;BME280_humidity;BME280_pressure;Samples;Min_cycle;Max_cycle;Signal;HPM_P1;HPM_P2
2022/03/30 00:01:32;;;;;;;17.17;7.20;;;;;;;;;;4984242;28;20205;-86
2022/03/30 00:04:37;;;;;;;17.97;7.07;;;;;;;;;;4973034;28;20214;-85
2022/03/30 00:07:41;;;;;;;22.43;8.30;;;;;;;;;;4956885;28;20215;-85
2022/03/30 00:10:45;;;;;;;19.80;7.50;;;;;;;;;;4982456;28;20194;-85
2022/03/30 00:13:49;;;;;;;20.20;7.63;;;;;;;;;;4961271;28;20221;-86
2022/03/30 00:16:53;;;;;;;21.50;8.17;;;;;;;;;;4972752;28;20174;-86
2022/03/30 00:19:59;;;;;;;31.57;8.47;;;;;;;;;;4963627;28;20570;-85
2022/03/30 00:23:03;;;;;;;15.90;7.90;;;;;;;;;;4956142;28;20713;-86
2022/03/30 00:26:07;;;;;;;16.70;7.37;;;;;;;;;;4952851;28;20201;-86
2022/03/30 00:29:12;;;;;;;27.07;9.40;;;;;;;;;;4967565;28;20195;-85
2022/03/30 00:32:16;;;;;;;27.30;8.93;;;;;;;;;;4953738;28;20191;-85
2022/03/30 00:35:21;;;;;;;22.70;8.70;;;;;;;;;;4956692;28;20189;-85
2022/03/30 00:38:26;;;;;;;30.27;8.87;;;;;;;;;;4972650;28;20174;-85
2022/03/30 00:41:30;;;;;;;19.10;7.90;;;;;;;;;;4960107;28;20194;-85
2022/03/30 00:44:34;;;;;;;19.90;8.73;;;;;;;;;;4973564;28;20569;-86
2022/03/30 00:47:39;;;;;;;23.57;8.77;;;;;;;;;;4936244;29;20686;-86
2022/03/30 00:50:43;;;;;;;26.87;8.87;;;;;;;;;;4967429;28;20190;-85
2022/03/30 00:53:48;;;;;;;19.67;8.37;;;;;;;;;;4975242;28;20218;-86
2022/03/30 00:56:52;;;;;;;23.70;8.83;;;;;;;;;;4964114;28;20194;-86
2022/03/30 00:59:57;;;;;;;22.53;8.43;;;;;;;;;;4964144;28;20196;-86
2022/03/30 01:03:01;;;;;;;22.40;8.90;;;;;;;;;;4945127;28;20235;-85
2022/03/30 01:06:05;;;;;;;23.70;8.47;;;;;;;;;;4945369;28;20186;-86
2022/03/30 01:09:09;;;;;;;22.33;8.90;;;;;;;;;;4967851;28;20198;-86
2022/03/30 01:12:14;;;;;;;20.40;7.87;;;;;;;;;;4967309;28;20201;-86
2022/03/30 01:15:19;;;;;;;24.77;7.73;;;;;;;;;;4972193;28;20534;-86
2022/03/30 01:18:23;;;;;;;26.50;7.70;;;;;;;;;;4972318;28;20182;-86
2022/03/30 01:21:27;;;;;;;18.37;7.73;;;;;;;;;;4961451;28;20186;-86
2022/03/30 01:24:31;;;;;;;27.10;8.43;;;;;;;;;;4971862;28;20214;-86
2022/03/30 01:27:36;;;;;;;23.20;7.37;;;;;;;;;;4972083;28;20209;-86
2022/03/30 01:34:03;;;;;;;18.77;8.10;;;;;;;;;;4963734;28;20214;-86
2022/03/30 01:37:09;;;;;;;18.20;7.63;;;;;;;;;;4944656;29;20191;-86
2022/03/30 01:40:13;;;;;;;20.83;7.27;;;;;;;;;;4975241;28;20194;-86
2022/03/30 01:43:17;;;;;;;17.43;7.63;;;;;;;;;;4981066;28;20237;-86
2022/03/30 01:46:23;;;;;;;23.10;7.33;;;;;;;;;;4959318;28;20187;-86
2022/03/30 01:49:27;;;;;;;25.40;7.53;;;;;;;;;;4958187;28;20677;-86
2022/03/30 01:52:31;;;;;;;27.20;7.70;;;;;;;;;;4983027;28;20182;-86
2022/03/30 01:55:35;;;;;;;17.50;7.30;;;;;;;;;;4944630;29;20195;-87
2022/03/30 01:58:44;;;;;;;16.03;7.80;;;;;;;;;;4975563;28;20194;-86
2022/03/30 02:01:48;;;;;;;19.57;7.43;;;;;;;;;;4992938;28;20669;-86
2022/03/30 02:04:52;;;;;;;14.57;7.23;;;;;;;;;;4957756;28;20186;-86
2022/03/30 02:07:56;;;;;;;21.63;8.13;;;;;;;;;;4962650;28;20211;-86
2022/03/30 02:11:00;;;;;;;24.93;8.20;;;;;;;;;;4982799;28;20198;-86
2022/03/30 02:14:05;;;;;;;17.23;7.40;;;;;;;;;;4974527;28;20222;-86
2022/03/30 02:17:09;;;;;;;25.83;7.70;;;;;;;;;;4984911;28;20264;-86
2022/03/30 02:20:13;;;;;;;20.40;7.30;;;;;;;;;;4975341;28;20206;-86
2022/03/30 02:23:17;;;;;;;22.50;7.40;;;;;;;;;;4983607;28;20226;-86
2022/03/30 02:26:21;;;;;;;22.93;8.17;;;;;;;;;;4973931;28;20657;-86
2022/03/30 02:29:25;;;;;;;19.20;7.27;;;;;;;;;;4980088;28;20194;-86
2022/03/30 02:32:29;;;;;;;20.33;7.50;;;;;;;;;;4981672;28;20704;-86
2022/03/30 02:35:33;;;;;;;20.13;7.67;;;;;;;;;;4962307;28;20191;-86
2022/03/30 02:38:37;;;;;;;20.10;7.27;;;;;;;;;;4954966;28;20179;-86
2022/03/30 02:41:41;;;;;;;18.27;7.63;;;;;;;;;;4966100;28;20182;-86
2022/03/30 02:44:46;;;;;;;19.37;6.97;;;;;;;;;;4955492;28;20230;-86
2022/03/30 02:51:12;;;;;;;18.60;7.00;;;;;;;;;;4965967;28;20187;-85
2022/03/30 02:54:16;;;;;;;22.53;7.63;;;;;;;;;;4963979;28;20214;-86
2022/03/30 02:57:20;;;;;;;24.50;8.10;;;;;;;;;;4965518;28;20535;-86
2022/03/30 03:00:25;;;;;;;24.13;7.30;;;;;;;;;;4965719;28;20183;-86
2022/03/30 03:03:29;;;;;;;17.70;6.73;;;;;;;;;;4957475;28;20692;-86
2022/03/30 03:06:33;;;;;;;25.93;8.00;;;;;;;;;;4984930;28;20182;-86
2022/03/30 03:09:37;;;;;;;26.63;8.20;;;;;;;;;;4966169;28;20538;-86
2022/03/30 03:12:41;;;;;;;18.77;7.07;;;;;;;;;;4963644;28;20198;-86
2022/03/30 03:15:46;;;;;;;22.07;8.00;;;;;;;;;;4945852;29;20670;-86
2022/03/30 03:18:51;;;;;;;25.20;8.03;;;;;;;;;;4963753;28;20198;-86
2022/03/30 03:21:55;;;;;;;19.47;8.70;;;;;;;;;;4983642;28;20206;-86
2022/03/30 03:24:59;;;;;;;18.67;8.00;;;;;;;;;;4973238;28;20182;-86
2022/03/30 03:28:04;;;;;;;18.23;7.77;;;;;;;;;;4984139;28;20230;-86
2022/03/30 03:31:08;;;;;;;23.30;8.37;;;;;;;;;;4962539;28;20207;-86
2022/03/30 03:34:13;;;;;;;19.13;7.60;;;;;;;;;;4975052;28;20226;-86
2022/03/30 03:37:17;;;;;;;22.63;7.63;;;;;;;;;;4973156;28;20206;-86
2022/03/30 03:40:21;;;;;;;26.50;8.37;;;;;;;;;;4968422;28;20199;-86
2022/03/30 03:43:25;;;;;;;20.57;8.30;;;;;;;;;;4945119;28;20239;-86
2022/03/30 03:46:29;;;;;;;24.13;8.10;;;;;;;;;;4980765;28;20194;-86
2022/03/30 03:49:33;;;;;;;23.00;8.20;;;;;;;;;;4967869;28;20693;-86
2022/03/30 03:52:38;;;;;;;22.73;7.83;;;;;;;;;;4977437;28;20178;-85
2022/03/30 03:55:41;;;;;;;21.37;8.00;;;;;;;;;;4962761;28;20191;-86
2022/03/30 03:58:49;;;;;;;25.67;8.23;;;;;;;;;;4976128;28;20183;-86
2022/03/30 04:01:53;;;;;;;24.73;8.63;;;;;;;;;;4956597;28;20190;-85
2022/03/30 04:04:57;;;;;;;27.37;8.70;;;;;;;;;;4974508;28;20187;-86
2022/03/30 04:08:02;;;;;;;22.13;8.07;;;;;;;;;;4953424;28;20566;-87
2022/03/30 04:11:05;;;;;;;21.67;8.47;;;;;;;;;;4953763;28;20543;-86
2022/03/30 04:14:10;;;;;;;15.37;7.53;;;;;;;;;;4966618;28;20218;-86
2022/03/30 04:17:14;;;;;;;18.23;8.20;;;;;;;;;;4963253;28;20190;-86
2022/03/30 04:20:18;;;;;;;16.70;8.33;;;;;;;;;;4974882;28;20178;-86
2022/03/30 04:23:22;;;;;;;24.60;8.60;;;;;;;;;;4963917;28;20219;-86
2022/03/30 04:26:26;;;;;;;22.77;8.60;;;;;;;;;;4948314;28;20191;-86
2022/03/30 04:29:31;;;;;;;23.87;8.13;;;;;;;;;;4982976;28;20225;-86
2022/03/30 04:32:35;;;;;;;24.57;8.07;;;;;;;;;;4986258;28;20202;-85
2022/03/30 04:35:39;;;;;;;20.07;8.07;;;;;;;;;;4954940;28;20195;-85
2022/03/30 04:38:43;;;;;;;24.77;8.03;;;;;;;;;;4933224;29;20203;-84
2022/03/30 04:41:47;;;;;;;21.07;7.80;;;;;;;;;;4947348;28;20688;-85
2022/03/30 04:44:51;;;;;;;21.17;8.10;;;;;;;;;;4967297;28;20201;-86
2022/03/30 04:47:57;;;;;;;21.57;8.37;;;;;;;;;;4968937;28;20567;-86
2022/03/30 04:51:02;;;;;;;23.00;6.97;;;;;;;;;;4974882;28;20649;-85
2022/03/30 04:54:06;;;;;;;20.97;6.30;;;;;;;;;;4962167;28;20222;-86
2022/03/30 04:57:10;;;;;;;21.40;6.43;;;;;;;;;;4959067;28;20194;-85
2022/03/30 05:00:14;;;;;;;28.17;6.73;;;;;;;;;;4976536;28;20194;-85
2022/03/30 05:03:18;;;;;;;36.50;7.00;;;;;;;;;;4969610;28;20213;-86
2022/03/30 05:06:23;;;;;;;27.73;6.60;;;;;;;;;;4954808;28;20187;-86
2022/03/30 05:09:27;;;;;;;28.97;6.83;;;;;;;;;;4974194;28;20218;-85
2022/03/30 05:12:31;;;;;;;31.33;6.63;;;;;;;;;;4989994;28;20202;-86
2022/03/30 05:15:35;;;;;;;27.27;7.53;;;;;;;;;;4964728;28;20656;-85
2022/03/30 05:18:39;;;;;;;26.47;8.63;;;;;;;;;;4963579;28;20199;-85
2022/03/30 05:21:43;;;;;;;26.17;9.93;;;;;;;;;;4975779;28;20531;-85
2022/03/30 05:24:47;;;;;;;29.23;9.67;;;;;;;;;;4971241;28;20230;-85
2022/03/30 05:27:51;;;;;;;24.80;9.97;;;;;;;;;;4978577;28;20653;-85
2022/03/30 05:30:56;;;;;;;21.23;9.73;;;;;;;;;;4971382;28;20182;-85
2022/03/30 05:34:00;;;;;;;28.57;14.13;;;;;;;;;;4965339;28;20721;-85
2022/03/30 05:37:04;;;;;;;27.83;11.03;;;;;;;;;;4979170;28;20198;-85
2022/03/30 05:40:09;;;;;;;27.77;10.70;;;;;;;;;;4963587;28;20195;-85
2022/03/30 05:43:13;;;;;;;24.83;8.90;;;;;;;;;;4962892;28;20697;-85
2022/03/30 05:46:18;;;;;;;31.23;9.10;;;;;;;;;;4970422;28;20190;-86
2022/03/30 05:49:22;;;;;;;25.90;8.43;;;;;;;;;;4955736;28;20215;-86
2022/03/30 05:52:27;;;;;;;21.57;7.73;;;;;;;;;;4981897;28;20190;-85
2022/03/30 05:55:31;;;;;;;27.53;8.20;;;;;;;;;;4980574;28;20198;-87
2022/03/30 05:58:35;;;;;;;26.20;7.37;;;;;;;;;;4981055;28;20198;-85
2022/03/30 06:01:39;;;;;;;23.13;6.90;;;;;;;;;;4966961;28;20194;-85
2022/03/30 06:04:49;;;;;;;25.83;7.27;;;;;;;;;;4973569;28;20221;-86
2022/03/30 06:07:57;;;;;;;33.90;8.87;;;;;;;;;;4958482;29;20179;-85
2022/03/30 06:11:01;;;;;;;24.60;6.77;;;;;;;;;;4947524;29;20179;-85
2022/03/30 06:14:05;;;;;;;31.40;7.70;;;;;;;;;;4946592;29;20219;-85
2022/03/30 06:17:10;;;;;;;21.73;7.10;;;;;;;;;;4947232;29;20183;-85
2022/03/30 06:20:15;;;;;;;24.47;7.17;;;;;;;;;;4980192;28;20192;-85
2022/03/30 06:23:19;;;;;;;29.90;8.30;;;;;;;;;;4954584;28;20243;-86
2022/03/30 06:26:23;;;;;;;24.77;8.33;;;;;;;;;;4957670;29;20183;-85
2022/03/30 06:29:27;;;;;;;25.50;7.83;;;;;;;;;;4961917;28;20223;-85
2022/03/30 06:32:31;;;;;;;27.13;7.63;;;;;;;;;;4937143;28;20551;-86
2022/03/30 06:35:35;;;;;;;35.10;8.57;;;;;;;;;;4973574;28;20190;-86
2022/03/30 06:38:39;;;;;;;24.17;8.27;;;;;;;;;;4982631;28;20182;-87
2022/03/30 06:41:44;;;;;;;27.77;7.50;;;;;;;;;;4961317;28;20539;-87
2022/03/30 06:44:48;;;;;;;28.77;8.33;;;;;;;;;;4976580;28;20234;-87
2022/03/30 06:47:53;;;;;;;23.73;7.90;;;;;;;;;;4973535;28;20190;-88
2022/03/30 06:50:57;;;;;;;35.90;9.43;;;;;;;;;;4983890;28;20190;-87
2022/03/30 06:54:02;;;;;;;35.37;10.37;;;;;;;;;;4974929;28;20218;-87
2022/03/30 06:57:07;;;;;;;26.07;9.77;;;;;;;;;;4974371;28;20185;-86
2022/03/30 07:00:14;;;;;;;41.13;13.27;;;;;;;;;;4955209;28;20199;-86
2022/03/30 07:03:19;;;;;;;32.03;9.83;;;;;;;;;;4953009;28;20229;-86
2022/03/30 07:06:23;;;;;;;84.30;41.73;;;;;;;;;;4985086;28;20197;-86
2022/03/30 07:12:51;;;;;;;46.83;20.77;;;;;;;;;;4953449;28;20234;-86
2022/03/30 07:15:55;;;;;;;30.10;10.97;;;;;;;;;;4962702;28;20197;-86
2022/03/30 07:18:59;;;;;;;35.10;8.53;;;;;;;;;;4963931;28;20210;-86
2022/03/30 07:22:04;;;;;;;36.10;7.53;;;;;;;;;;4965250;28;20183;-86
2022/03/30 07:25:09;;;;;;;26.50;8.10;;;;;;;;;;4969071;28;20198;-86
2022/03/30 07:28:16;;;;;;;31.63;7.67;;;;;;;;;;4955555;28;20191;-86
2022/03/30 07:31:20;;;;;;;25.87;7.40;;;;;;;;;;4945876;29;20203;-86
2022/03/30 07:34:24;;;;;;;27.03;7.93;;;;;;;;;;4963952;28;20221;-86
2022/03/30 07:37:28;;;;;;;27.53;6.70;;;;;;;;;;4983884;28;20182;-86
2022/03/30 07:40:33;;;;;;;27.10;6.83;;;;;;;;;;4967357;28;20198;-86
2022/03/30 07:43:37;;;;;;;26.43;7.73;;;;;;;;;;4969181;28;20234;-86
2022/03/30 07:46:40;;;;;;;25.77;7.03;;;;;;;;;;4957450;28;20199;-86
2022/03/30 07:49:44;;;;;;;29.83;6.43;;;;;;;;;;4970997;28;20225;-86
2022/03/30 07:52:50;;;;;;;28.00;7.33;;;;;;;;;;4972387;28;20222;-85
2022/03/30 07:55:55;;;;;;;25.07;9.30;;;;;;;;;;4945266;29;20208;-86
2022/03/30 07:59:00;;;;;;;25.93;7.93;;;;;;;;;;4967671;28;20649;-86
2022/03/30 08:02:04;;;;;;;26.80;7.87;;;;;;;;;;4981020;28;20190;-84
2022/03/30 08:05:10;;;;;;;23.07;7.33;;;;;;;;;;4972774;28;20174;-86
2022/03/30 08:08:15;;;;;;;26.17;7.30;;;;;;;;;;4965699;28;20673;-86
2022/03/30 08:11:19;;;;;;;30.10;6.87;;;;;;;;;;4965173;28;20198;-86
2022/03/30 08:14:23;;;;;;;27.90;6.27;;;;;;;;;;4953136;28;20222;-86
2022/03/30 08:17:27;;;;;;;34.17;8.47;;;;;;;;;;4964351;28;20179;-86
2022/03/30 08:23:55;;;;;;;28.73;10.93;;;;;;;;;;4995416;28;20218;-86
2022/03/30 08:26:59;;;;;;;66.90;37.57;;;;;;;;;;4947276;28;20209;-87
2022/03/30 08:30:05;;;;;;;35.13;18.40;;;;;;;;;;4950966;28;20240;-86
2022/03/30 08:33:09;;;;;;;28.40;8.47;;;;;;;;;;4971408;28;20224;-88
2022/03/30 08:36:13;;;;;;;25.70;7.23;;;;;;;;;;4981501;28;20653;-86
2022/03/30 08:39:18;;;;;;;27.17;7.33;;;;;;;;;;4972873;28;20178;-87
2022/03/30 08:42:22;;;;;;;19.53;6.83;;;;;;;;;;4978018;28;20199;-86
2022/03/30 08:45:26;;;;;;;19.73;7.73;;;;;;;;;;4971926;28;20195;-86
2022/03/30 08:48:30;;;;;;;31.97;7.27;;;;;;;;;;4981065;28;20653;-86
2022/03/30 08:51:38;;;;;;;27.60;7.53;;;;;;;;;;4972900;28;20195;-86
2022/03/30 08:54:43;;;;;;;22.73;8.23;;;;;;;;;;4970816;28;20579;-86
2022/03/30 08:57:48;;;;;;;22.37;7.43;;;;;;;;;;4969495;28;20539;-88
2022/03/30 09:00:52;;;;;;;26.00;7.53;;;;;;;;;;4974062;28;20174;-86
2022/03/30 09:03:58;;;;;;;29.53;7.57;;;;;;;;;;4984255;28;20222;-86
2022/03/30 09:07:02;;;;;;;19.40;7.47;;;;;;;;;;4971572;28;20199;-86
2022/03/30 09:10:19;;;;;;;27.33;6.67;;;;;;;;;;4983235;28;20209;-86
2022/03/30 09:13:23;;;;;;;20.20;6.23;;;;;;;;;;4949224;28;20227;-86
2022/03/30 09:16:37;;;;;;;23.53;6.67;;;;;;;;;;4975482;28;20198;-86
2022/03/30 09:19:42;;;;;;;16.60;6.57;;;;;;;;;;4969682;28;20191;-86
2022/03/30 09:22:55;;;;;;;22.30;6.87;;;;;;;;;;4990206;28;20214;-86
2022/03/30 09:25:59;;;;;;;20.63;7.63;;;;;;;;;;4980837;28;20234;-86
2022/03/30 09:29:05;;;;;;;22.30;7.40;;;;;;;;;;4973423;28;20186;-86
2022/03/30 09:32:09;;;;;;;25.87;7.40;;;;;;;;;;4982368;28;20184;-87
2022/03/30 09:35:37;;;;;;;21.80;7.60;;;;;;;;;;4973096;28;20184;-85
2022/03/30 09:38:41;;;;;;;28.03;9.60;;;;;;;;;;4969700;28;20188;-87
2022/03/30 09:41:49;;;;;;;27.50;10.47;;;;;;;;;;4978264;28;20187;-87
2022/03/30 09:44:54;;;;;;;24.03;7.60;;;;;;;;;;4975993;28;20558;-86
2022/03/30 09:48:10;;;;;;;22.57;10.43;;;;;;;;;;4968996;28;20178;-86
2022/03/30 09:51:16;;;;;;;21.27;8.60;;;;;;;;;;4956698;28;20570;-86
2022/03/30 09:54:44;;;;;;;24.00;6.70;;;;;;;;;;4980254;28;20214;-86
2022/03/30 09:57:50;;;;;;;19.33;6.10;;;;;;;;;;4989857;28;20194;-86
2022/03/30 10:01:04;;;;;;;22.33;7.40;;;;;;;;;;4977925;28;20182;-86
2022/03/30 10:04:09;;;;;;;23.40;7.10;;;;;;;;;;4982538;28;20218;-87
2022/03/30 10:07:14;;;;;;;22.90;6.73;;;;;;;;;;4988376;28;20186;-86
2022/03/30 10:10:22;;;;;;;20.53;5.60;;;;;;;;;;4977689;28;20215;-87
2022/03/30 10:13:27;;;;;;;21.23;6.33;;;;;;;;;;4969270;28;20222;-86
2022/03/30 10:16:32;;;;;;;23.07;6.27;;;;;;;;;;4960053;28;20179;-86
2022/03/30 10:19:38;;;;;;;18.93;6.43;;;;;;;;;;4946260;28;20179;-86
2022/03/30 10:22:45;;;;;;;17.33;5.97;;;;;;;;;;4964034;28;20535;-86
2022/03/30 10:26:10;;;;;;;22.30;6.90;;;;;;;;;;4973193;28;20190;-87
2022/03/30 10:29:16;;;;;;;22.00;6.50;;;;;;;;;;4961314;28;20211;-87
2022/03/30 10:32:23;;;;;;;23.43;6.80;;;;;;;;;;4941755;28;20190;-86
2022/03/30 10:35:39;;;;;;;18.57;5.90;;;;;;;;;;4981674;28;20210;-86
2022/03/30 10:39:24;;;;;;;32.27;7.77;;;;;;;;;;4980084;28;20599;-87
2022/03/30 10:42:47;;;;;;;26.17;8.27;;;;;;;;;;4970803;28;20187;-86
2022/03/30 10:45:58;;;;;;;33.57;7.97;;;;;;;;;;4958325;28;20532;-87
2022/03/30 10:49:41;;;;;;;31.93;6.57;;;;;;;;;;4979375;28;20516;-86
2022/03/30 10:52:48;;;;;;;24.70;7.60;;;;;;;;;;4974180;28;20222;-86
2022/03/30 10:55:52;;;;;;;32.70;7.47;;;;;;;;;;4972861;28;20645;-86
2022/03/30 10:58:56;;;;;;;31.97;7.10;;;;;;;;;;4960830;28;20182;-86
2022/03/30 11:02:13;;;;;;;22.60;7.93;;;;;;;;;;4977178;28;20194;-86
2022/03/30 11:05:28;;;;;;;35.33;7.60;;;;;;;;;;4943669;29;20655;-86
2022/03/30 11:08:31;;;;;;;21.10;7.67;;;;;;;;;;4948773;29;20183;-87
2022/03/30 11:11:42;;;;;;;26.43;7.30;;;;;;;;;;4948603;29;20215;-86
2022/03/30 11:15:01;;;;;;;28.03;6.77;;;;;;;;;;4956822;28;20560;-86
2022/03/30 11:18:19;;;;;;;30.23;8.03;;;;;;;;;;4962959;28;20540;-86
2022/03/30 11:21:24;;;;;;;26.13;7.00;;;;;;;;;;4954662;28;20175;-86
2022/03/30 11:24:30;;;;;;;25.57;7.40;;;;;;;;;;4976713;28;20214;-86
2022/03/30 11:27:35;;;;;;;21.67;7.43;;;;;;;;;;4954679;28;20183;-86
2022/03/30 11:30:43;;;;;;;23.17;7.03;;;;;;;;;;4954548;28;20210;-86
2022/03/30 11:34:27;;;;;;;20.17;8.10;;;;;;;;;;4954256;28;20223;-86
2022/03/30 11:37:37;;;;;;;20.60;7.13;;;;;;;;;;4964912;28;20199;-86
2022/03/30 11:40:44;;;;;;;25.90;7.87;;;;;;;;;;4976046;28;20187;-86
2022/03/30 11:47:16;;;;;;;26.77;9.87;;;;;;;;;;4975717;28;20183;-86
2022/03/30 11:50:38;;;;;;;27.43;8.10;;;;;;;;;;4964913;28;20218;-86
2022/03/30 11:53:43;;;;;;;24.43;7.67;;;;;;;;;;4943541;29;20232;-86
2022/03/30 11:56:51;;;;;;;18.67;6.47;;;;;;;;;;4953824;28;20669;-86
2022/03/30 12:00:00;;;;;;;19.33;7.13;;;;;;;;;;4964970;28;20187;-85
2022/03/30 12:03:04;;;;;;;16.90;6.87;;;;;;;;;;4975939;28;20230;-86
2022/03/30 12:06:11;;;;;;;21.67;7.50;;;;;;;;;;4972162;28;20197;-86
2022/03/30 12:09:16;;;;;;;13.17;5.87;;;;;;;;;;4974206;28;20186;-85
2022/03/30 12:12:35;;;;;;;24.53;7.00;;;;;;;;;;4979390;28;20194;-86
2022/03/30 12:15:39;;;;;;;20.47;6.43;;;;;;;;;;4953893;28;20183;-85
2022/03/30 12:19:01;;;;;;;21.57;6.53;;;;;;;;;;4960865;28;20186;-86
2022/03/30 12:22:06;;;;;;;25.50;7.63;;;;;;;;;;4971099;28;20566;-86
2022/03/30 12:25:19;;;;;;;17.23;7.70;;;;;;;;;;4955784;28;20187;-86
2022/03/30 12:28:31;;;;;;;18.27;7.57;;;;;;;;;;4985017;28;20202;-87
2022/03/30 12:31:42;;;;;;;17.43;8.37;;;;;;;;;;4973587;28;20218;-86
2022/03/30 12:34:47;;;;;;;20.23;7.80;;;;;;;;;;4957853;28;20318;-86
2022/03/30 12:38:04;;;;;;;22.83;9.13;;;;;;;;;;4964737;28;20194;-86
2022/03/30 12:41:09;;;;;;;21.47;7.87;;;;;;;;;;4972568;28;20186;-85
2022/03/30 12:44:19;;;;;;;15.83;8.10;;;;;;;;;;4955420;28;20227;-86
2022/03/30 12:47:32;;;;;;;23.47;9.03;;;;;;;;;;4963244;28;20539;-85
2022/03/30 12:50:36;;;;;;;25.17;8.73;;;;;;;;;;4978718;28;20563;-86
2022/03/30 12:53:46;;;;;;;22.17;9.27;;;;;;;;;;4936710;28;20219;-87
2022/03/30 12:56:50;;;;;;;24.13;8.73;;;;;;;;;;4973545;28;20635;-87
2022/03/30 13:00:14;;;;;;;31.17;10.10;;;;;;;;;;4955964;28;20190;-85
2022/03/30 13:03:18;;;;;;;25.37;8.90;;;;;;;;;;4956173;28;20229;-89
2022/03/30 13:06:23;;;;;;;28.43;9.93;;;;;;;;;;4965355;28;20198;-90
2022/03/30 13:09:28;;;;;;;24.20;9.43;;;;;;;;;;4959378;28;20676;-87
2022/03/30 13:12:32;;;;;;;24.27;9.67;;;;;;;;;;4953126;28;20183;-87
2022/03/30 13:15:36;;;;;;;21.23;8.50;;;;;;;;;;4972158;28;20178;-87
2022/03/30 13:18:41;;;;;;;20.70;8.97;;;;;;;;;;4985132;28;20198;-87
2022/03/30 13:21:46;;;;;;;18.87;9.00;;;;;;;;;;4935240;29;20176;-87
2022/03/30 13:24:52;;;;;;;21.77;10.10;;;;;;;;;;4988648;28;20688;-86
2022/03/30 13:27:56;;;;;;;21.30;9.10;;;;;;;;;;4964719;28;20198;-86
2022/03/30 13:31:00;;;;;;;21.67;9.03;;;;;;;;;;4961805;28;20692;-86
2022/03/30 13:34:08;;;;;;;22.27;8.97;;;;;;;;;;4972094;28;20221;-86
2022/03/30 13:37:12;;;;;;;21.07;9.17;;;;;;;;;;4970178;28;20167;-87
2022/03/30 13:40:17;;;;;;;20.10;9.30;;;;;;;;;;4973870;28;20189;-86
2022/03/30 13:43:21;;;;;;;21.73;8.97;;;;;;;;;;4961973;28;20570;-87
2022/03/30 13:46:26;;;;;;;19.13;8.90;;;;;;;;;;4980137;28;20202;-88
2022/03/30 13:49:44;;;;;;;20.00;8.67;;;;;;;;;;4957990;28;20677;-85
2022/03/30 13:52:48;;;;;;;19.73;8.43;;;;;;;;;;4966332;28;20211;-86
2022/03/30 13:55:52;;;;;;;22.33;9.33;;;;;;;;;;4971349;28;20633;-86
2022/03/30 13:58:56;;;;;;;16.83;8.90;;;;;;;;;;4982867;28;20185;-86
2022/03/30 14:02:02;;;;;;;25.57;14.03;;;;;;;;;;4992073;28;20198;-85
2022/03/30 14:05:06;;;;;;;23.17;10.90;;;;;;;;;;4952639;28;20685;-85
2022/03/30 14:08:10;;;;;;;23.43;9.37;;;;;;;;;;4970488;28;20236;-85
2022/03/30 14:11:14;;;;;;;22.57;8.50;;;;;;;;;;4975468;28;20206;-86
2022/03/30 14:14:19;;;;;;;16.30;8.70;;;;;;;;;;4989873;28;20593;-86
2022/03/30 14:17:23;;;;;;;21.17;9.03;;;;;;;;;;4988059;28;20186;-86
2022/03/30 14:20:28;;;;;;;18.47;8.80;;;;;;;;;;4967528;28;20182;-88
2022/03/30 14:23:31;;;;;;;22.40;9.40;;;;;;;;;;4974563;28;20213;-88
2022/03/30 14:26:38;;;;;;;18.83;8.77;;;;;;;;;;5002012;28;20197;-87
2022/03/30 14:29:42;;;;;;;18.27;9.00;;;;;;;;;;4992860;28;20594;-88
2022/03/30 14:32:47;;;;;;;17.53;8.80;;;;;;;;;;4993313;28;20232;-88
2022/03/30 14:35:52;;;;;;;16.43;8.23;;;;;;;;;;5005204;28;20185;-88
2022/03/30 14:38:56;;;;;;;17.63;8.50;;;;;;;;;;4968739;28;20195;-88
2022/03/30 14:42:00;;;;;;;21.53;9.43;;;;;;;;;;4979941;28;20189;-88
2022/03/30 14:45:05;;;;;;;21.37;10.97;;;;;;;;;;4974447;28;20193;-88
2022/03/30 14:48:10;;;;;;;18.70;11.03;;;;;;;;;;4983284;28;20683;-88
2022/03/30 14:51:14;;;;;;;18.07;10.43;;;;;;;;;;4977529;28;20220;-88
2022/03/30 14:54:18;;;;;;;23.47;10.13;;;;;;;;;;4984902;28;20221;-88
2022/03/30 14:57:23;;;;;;;15.00;9.57;;;;;;;;;;4974257;28;20213;-87
2022/03/30 15:00:27;;;;;;;14.53;9.23;;;;;;;;;;4987535;28;20198;-88
2022/03/30 15:03:31;;;;;;;18.30;9.60;;;;;;;;;;5007969;28;20213;-88
2022/03/30 15:06:36;;;;;;;15.47;7.30;;;;;;;;;;4985827;28;20201;-88
2022/03/30 15:09:41;;;;;;;7.27;4.00;;;;;;;;;;4974042;28;20198;-87
2022/03/30 15:12:45;;;;;;;4.40;2.90;;;;;;;;;;4982960;28;20213;-87
2022/03/30 15:15:49;;;;;;;3.00;2.23;;;;;;;;;;5004982;28;20178;-86
2022/03/30 15:18:54;;;;;;;4.90;2.00;;;;;;;;;;5004750;28;20529;-87
2022/03/30 15:22:01;;;;;;;3.20;2.00;;;;;;;;;;4997049;28;20182;-87
2022/03/30 15:25:07;;;;;;;2.77;1.77;;;;;;;;;;4987906;28;20189;-86
2022/03/30 15:28:11;;;;;;;4.73;2.13;;;;;;;;;;5005566;28;20173;-84
2022/03/30 15:31:15;;;;;;;3.33;2.33;;;;;;;;;;5002110;28;20213;-86
2022/03/30 15:34:20;;;;;;;4.87;4.37;;;;;;;;;;4986224;28;20218;-87
2022/03/30 15:37:26;;;;;;;9.23;6.33;;;;;;;;;;4990134;28;20540;-84
2022/03/30 15:40:31;;;;;;;4.00;2.70;;;;;;;;;;5006334;28;20181;-86
2022/03/30 15:43:35;;;;;;;5.73;2.07;;;;;;;;;;5005084;28;20264;-88
2022/03/30 15:46:39;;;;;;;4.33;2.90;;;;;;;;;;4986075;28;20186;-85
2022/03/30 15:49:43;;;;;;;2.73;2.23;;;;;;;;;;5012433;28;20209;-87
2022/03/30 15:52:47;;;;;;;6.60;2.00;;;;;;;;;;4992970;28;20232;-85
2022/03/30 15:55:51;;;;;;;4.00;2.00;;;;;;;;;;4984668;28;20198;-86
2022/03/30 15:58:56;;;;;;;4.53;2.70;;;;;;;;;;4974292;28;20198;-86
2022/03/30 16:02:00;;;;;;;5.70;2.53;;;;;;;;;;4966163;28;20642;-86
2022/03/30 16:05:04;;;;;;;3.87;2.50;;;;;;;;;;4974671;28;20645;-85
2022/03/30 16:14:59;;;;;;;13.97;8.73;;;;;;;;;;4984480;28;20187;-87
2022/03/30 16:18:03;;;;;;;11.40;6.73;;;;;;;;;;4974895;28;20197;-88
2022/03/30 16:21:07;;;;;;;28.27;15.50;;;;;;;;;;4966001;28;20182;-84
2022/03/30 16:24:15;;;;;;;6.80;3.90;;;;;;;;;;4976961;28;20671;-83
2022/03/30 16:27:19;;;;;;;9.90;6.00;;;;;;;;;;4975268;28;20179;-85
2022/03/30 16:30:23;;;;;;;13.33;11.07;;;;;;;;;;4999554;28;20530;-85
2022/03/30 16:33:28;;;;;;;4.90;3.17;;;;;;;;;;4983565;28;20236;-84
2022/03/30 16:36:33;;;;;;;5.27;2.90;;;;;;;;;;4978102;28;20202;-85
2022/03/30 16:39:37;;;;;;;4.53;2.50;;;;;;;;;;4986800;28;20206;-85
2022/03/30 16:42:41;;;;;;;4.30;2.60;;;;;;;;;;4985388;28;20201;-86
2022/03/30 16:45:46;;;;;;;3.70;2.83;;;;;;;;;;4986134;28;20526;-85
2022/03/30 16:48:51;;;;;;;4.40;3.30;;;;;;;;;;4991961;28;20189;-86
2022/03/30 16:52:00;;;;;;;3.33;2.70;;;;;;;;;;4977483;28;20215;-87
2022/03/30 16:55:04;;;;;;;4.77;3.00;;;;;;;;;;4978189;28;20515;-86
2022/03/30 16:58:09;;;;;;;4.57;3.17;;;;;;;;;;4977745;28;20626;-85
2022/03/30 17:01:14;;;;;;;5.73;3.13;;;;;;;;;;4966444;28;20202;-86
2022/03/30 17:04:18;;;;;;;4.37;3.13;;;;;;;;;;4966546;28;20257;-85
2022/03/30 17:07:23;;;;;;;4.60;3.17;;;;;;;;;;4977774;28;20202;-86
2022/03/30 17:10:27;;;;;;;4.30;2.80;;;;;;;;;;4977774;28;20187;-85
2022/03/30 17:13:31;;;;;;;4.23;2.77;;;;;;;;;;4977746;28;20230;-85
2022/03/30 17:16:36;;;;;;;4.93;2.83;;;;;;;;;;4977422;28;20178;-84
2022/03/30 17:19:42;;;;;;;7.20;3.70;;;;;;;;;;4993328;28;20190;-90
2022/03/30 17:22:47;;;;;;;7.80;3.40;;;;;;;;;;4973841;28;20218;-89
2022/03/30 17:25:51;;;;;;;4.63;2.83;;;;;;;;;;4976120;28;20189;-85
2022/03/30 17:28:55;;;;;;;4.17;2.80;;;;;;;;;;4987361;28;20198;-85
2022/03/30 17:32:00;;;;;;;5.97;3.03;;;;;;;;;;4988602;28;20217;-86
2022/03/30 17:35:05;;;;;;;4.37;2.93;;;;;;;;;;5005653;28;20198;-86
2022/03/30 17:38:10;;;;;;;3.90;2.90;;;;;;;;;;4987544;28;20178;-86
2022/03/30 17:41:16;;;;;;;5.07;2.77;;;;;;;;;;4988787;28;20194;-84
2022/03/30 17:44:21;;;;;;;5.13;3.20;;;;;;;;;;5002616;28;20233;-86
2022/03/30 17:47:25;;;;;;;5.07;3.77;;;;;;;;;;4990222;28;20182;-85
2022/03/30 17:54:11;;;;;;;12.17;4.37;;;;;;;;;;4980061;28;20558;-86
2022/03/30 17:57:16;;;;;;;8.03;4.17;;;;;;;;;;4981907;28;20182;-89
2022/03/30 18:00:24;;;;;;;10.23;4.90;;;;;;;;;;4958916;28;20191;-87
2022/03/30 18:03:28;;;;;;;9.73;4.83;;;;;;;;;;4980905;28;20223;-85
2022/03/30 18:06:32;;;;;;;7.60;5.30;;;;;;;;;;4991596;28;20178;-86
2022/03/30 18:09:36;;;;;;;7.13;4.90;;;;;;;;;;4998147;28;20189;-86
2022/03/30 18:12:45;;;;;;;7.17;4.73;;;;;;;;;;4992169;28;20206;-85
2022/03/30 18:15:53;;;;;;;7.17;4.93;;;;;;;;;;5005171;28;20193;-85
2022/03/30 18:18:57;;;;;;;8.83;5.43;;;;;;;;;;4995769;28;20193;-85
2022/03/30 18:22:01;;;;;;;7.17;4.90;;;;;;;;;;5003510;28;20193;-84
2022/03/30 18:25:07;;;;;;;8.67;5.07;;;;;;;;;;4997422;28;20657;-84
2022/03/30 18:28:13;;;;;;;7.70;5.20;;;;;;;;;;5008010;28;20177;-86
2022/03/30 18:31:17;;;;;;;5.60;4.67;;;;;;;;;;5009436;28;20178;-85
2022/03/30 18:34:22;;;;;;;5.70;5.10;;;;;;;;;;4990771;28;20592;-86
2022/03/30 18:37:27;;;;;;;6.50;5.50;;;;;;;;;;4988898;28;20190;-85
2022/03/30 18:40:32;;;;;;;8.17;5.47;;;;;;;;;;5000376;28;20186;-85
2022/03/30 18:43:37;;;;;;;8.57;5.37;;;;;;;;;;4988835;28;20225;-86
2022/03/30 18:46:42;;;;;;;7.67;5.13;;;;;;;;;;5000438;28;20193;-86